sensor_id;sensor_type;location;lat;lon;timestamp;temperature;humidity
70851;DHT22;58475;49.662;9.636;2022-09-03T00:01:47;14.71;65.03
70851;DHT22;58475;49.662;9.636;2022-09-03T00:04:26;14.74;63.88
70851;DHT22;58475;49.662;9.636;2022-09-03T00:07:07;14.77;66.19
70851;DHT22;58475;49.662;9.636;2022-09-03T00:09:43;14.69;65.21
70851;DHT22;58475;49.662;9.636;2022-09-03T00:12:32;14.67;66.23
70851;DHT22;58475;49.662;9.636;2022-09-03T00:15:11;14.84;65.26
70851;DHT22;58475;49.662;9.636;2022-09-03T00:18:03;14.69;64.45
70851;DHT22;58475;49.662;9.636;2022-09-03T00:20:41;14.63;67.47
70851;DHT22;58475;49.662;9.636;2022-09-03T00:23:13;14.19;69.84
70851;DHT22;58475;49.662;9.636;2022-09-03T00:28:50;14.16;69.28
70851;DHT22;58475;49.662;9.636;2022-09-03T00:31:24;14.10;69.63
70851;DHT22;58475;49.662;9.636;2022-09-03T00:33:55;14.05;70.17
70851;DHT22;58475;49.662;9.636;2022-09-03T00:36:27;14.03;70.92
70851;DHT22;58475;49.662;9.636;2022-09-03T00:38:56;14.05;71.10
70851;DHT22;58475;49.662;9.636;2022-09-03T00:41:25;13.96;70.90
70851;DHT22;58475;49.662;9.636;2022-09-03T00:46:41;13.49;73.26
70851;DHT22;58475;49.662;9.636;2022-09-03T00:49:27;13.48;74.02
70851;DHT22;58475;49.662;9.636;2022-09-03T00:57:48;13.41;73.60
70851;DHT22;58475;49.662;9.636;2022-09-03T01:00:19;13.57;72.62
70851;DHT22;58475;49.662;9.636;2022-09-03T01:05:26;13.39;73.33
70851;DHT22;58475;49.662;9.636;2022-09-03T01:08:17;13.55;70.41
70851;DHT22;58475;49.662;9.636;2022-09-03T01:16:08;13.66;71.24
70851;DHT22;58475;49.662;9.636;2022-09-03T01:24:46;13.48;72.29
70851;DHT22;58475;49.662;9.636;2022-09-03T01:27:20;13.37;72.42
70851;DHT22;58475;49.662;9.636;2022-09-03T01:30:04;13.22;73.90
70851;DHT22;58475;49.662;9.636;2022-09-03T01:35:10;13.10;74.82
70851;DHT22;58475;49.662;9.636;2022-09-03T01:38:00;13.17;74.48
70851;DHT22;58475;49.662;9.636;2022-09-03T01:40:44;13.07;73.92
70851;DHT22;58475;49.662;9.636;2022-09-03T01:43:22;12.96;74.11
70851;DHT22;58475;49.662;9.636;2022-09-03T01:46:12;13.08;73.67
70851;DHT22;58475;49.662;9.636;2022-09-03T01:48:44;12.87;74.54
70851;DHT22;58475;49.662;9.636;2022-09-03T01:51:22;12.59;75.37
70851;DHT22;58475;49.662;9.636;2022-09-03T01:59:47;12.69;75.69
70851;DHT22;58475;49.662;9.636;2022-09-03T02:02:22;12.63;76.43
70851;DHT22;58475;49.662;9.636;2022-09-03T02:07:50;12.64;77.15
70851;DHT22;58475;49.662;9.636;2022-09-03T02:10:21;12.53;76.45
70851;DHT22;58475;49.662;9.636;2022-09-03T02:12:57;12.56;76.82
70851;DHT22;58475;49.662;9.636;2022-09-03T02:15:25;12.49;77.60
70851;DHT22;58475;49.662;9.636;2022-09-03T02:17:54;12.48;78.04
70851;DHT22;58475;49.662;9.636;2022-09-03T02:20:23;12.59;77.87
70851;DHT22;58475;49.662;9.636;2022-09-03T02:22:51;12.50;77.96
70851;DHT22;58475;49.662;9.636;2022-09-03T02:25:16;12.31;77.76
70851;DHT22;58475;49.662;9.636;2022-09-03T02:27:42;12.42;77.54
70851;DHT22;58475;49.662;9.636;2022-09-03T02:30:09;12.25;77.90
70851;DHT22;58475;49.662;9.636;2022-09-03T02:32:35;12.36;77.50
70851;DHT22;58475;49.662;9.636;2022-09-03T02:35:01;12.33;77.06
70851;DHT22;58475;49.662;9.636;2022-09-03T02:37:26;11.95;78.33
70851;DHT22;58475;49.662;9.636;2022-09-03T02:39:53;12.14;78.03
70851;DHT22;58475;49.662;9.636;2022-09-03T02:42:18;12.36;76.94
70851;DHT22;58475;49.662;9.636;2022-09-03T02:44:48;12.33;76.81
70851;DHT22;58475;49.662;9.636;2022-09-03T02:47:16;12.38;77.07
70851;DHT22;58475;49.662;9.636;2022-09-03T02:49:47;12.53;77.19
70851;DHT22;58475;49.662;9.636;2022-09-03T02:52:13;12.36;77.41
70851;DHT22;58475;49.662;9.636;2022-09-03T02:54:39;12.42;76.79
70851;DHT22;58475;49.662;9.636;2022-09-03T02:57:06;12.49;76.46
70851;DHT22;58475;49.662;9.636;2022-09-03T02:59:32;12.52;76.91
70851;DHT22;58475;49.662;9.636;2022-09-03T03:01:58;12.60;76.55
70851;DHT22;58475;49.662;9.636;2022-09-03T03:04:23;12.62;76.23
70851;DHT22;58475;49.662;9.636;2022-09-03T03:06:48;12.64;75.72
70851;DHT22;58475;49.662;9.636;2022-09-03T03:09:17;12.87;76.38
70851;DHT22;58475;49.662;9.636;2022-09-03T03:11:42;12.89;75.97
70851;DHT22;58475;49.662;9.636;2022-09-03T03:14:08;12.91;75.12
70851;DHT22;58475;49.662;9.636;2022-09-03T03:16:33;12.89;75.84
70851;DHT22;58475;49.662;9.636;2022-09-03T03:18:59;12.89;75.87
70851;DHT22;58475;49.662;9.636;2022-09-03T03:21:24;12.87;76.79
70851;DHT22;58475;49.662;9.636;2022-09-03T03:23:50;12.76;77.26
70851;DHT22;58475;49.662;9.636;2022-09-03T03:26:17;13.15;76.77
70851;DHT22;58475;49.662;9.636;2022-09-03T03:28:44;12.90;76.87
70851;DHT22;58475;49.662;9.636;2022-09-03T03:31:13;13.14;75.94
70851;DHT22;58475;49.662;9.636;2022-09-03T03:33:39;13.17;76.49
70851;DHT22;58475;49.662;9.636;2022-09-03T03:36:06;13.08;77.67
70851;DHT22;58475;49.662;9.636;2022-09-03T03:38:33;13.30;75.53
70851;DHT22;58475;49.662;9.636;2022-09-03T03:41:08;13.27;76.76
70851;DHT22;58475;49.662;9.636;2022-09-03T03:43:34;13.14;77.21
70851;DHT22;58475;49.662;9.636;2022-09-03T03:45:59;13.12;76.98
70851;DHT22;58475;49.662;9.636;2022-09-03T03:48:25;13.17;77.71
70851;DHT22;58475;49.662;9.636;2022-09-03T03:50:51;13.39;76.46
70851;DHT22;58475;49.662;9.636;2022-09-03T03:53:17;13.24;77.48
70851;DHT22;58475;49.662;9.636;2022-09-03T03:55:43;13.38;76.58
70851;DHT22;58475;49.662;9.636;2022-09-03T03:58:08;13.30;77.18
70851;DHT22;58475;49.662;9.636;2022-09-03T04:00:33;13.42;76.22
70851;DHT22;58475;49.662;9.636;2022-09-03T04:03:03;13.37;77.00
70851;DHT22;58475;49.662;9.636;2022-09-03T04:05:28;13.47;76.64
70851;DHT22;58475;49.662;9.636;2022-09-03T04:07:54;13.44;76.97
70851;DHT22;58475;49.662;9.636;2022-09-03T04:10:19;13.42;76.81
70851;DHT22;58475;49.662;9.636;2022-09-03T04:12:44;13.54;76.16
70851;DHT22;58475;49.662;9.636;2022-09-03T04:15:10;13.48;76.90
70851;DHT22;58475;49.662;9.636;2022-09-03T04:17:35;13.38;76.43
70851;DHT22;58475;49.662;9.636;2022-09-03T04:20:02;13.54;77.80
70851;DHT22;58475;49.662;9.636;2022-09-03T04:22:28;13.57;76.16
70851;DHT22;58475;49.662;9.636;2022-09-03T04:24:53;13.45;76.41
70851;DHT22;58475;49.662;9.636;2022-09-03T04:27:19;13.45;75.16
70851;DHT22;58475;49.662;9.636;2022-09-03T04:29:44;13.49;75.89
70851;DHT22;58475;49.662;9.636;2022-09-03T04:32:10;13.48;76.60
70851;DHT22;58475;49.662;9.636;2022-09-03T04:34:53;13.95;71.99
70851;DHT22;58475;49.662;9.636;2022-09-03T04:37:19;14.02;72.37
70851;DHT22;58475;49.662;9.636;2022-09-03T04:39:44;14.03;74.46
70851;DHT22;58475;49.662;9.636;2022-09-03T04:42:10;14.02;75.11
70851;DHT22;58475;49.662;9.636;2022-09-03T04:44:35;13.99;75.58
70851;DHT22;58475;49.662;9.636;2022-09-03T04:47:03;14.02;76.43
70851;DHT22;58475;49.662;9.636;2022-09-03T04:49:29;13.92;76.78
70851;DHT22;58475;49.662;9.636;2022-09-03T04:51:55;13.92;76.68
70851;DHT22;58475;49.662;9.636;2022-09-03T04:54:21;14.06;75.56
70851;DHT22;58475;49.662;9.636;2022-09-03T04:56:46;14.07;74.90
70851;DHT22;58475;49.662;9.636;2022-09-03T04:59:11;14.17;74.21
70851;DHT22;58475;49.662;9.636;2022-09-03T05:01:39;14.26;74.10
70851;DHT22;58475;49.662;9.636;2022-09-03T05:04:05;14.26;72.85
70851;DHT22;58475;49.662;9.636;2022-09-03T05:06:32;14.33;71.65
70851;DHT22;58475;49.662;9.636;2022-09-03T05:08:58;14.38;72.46
70851;DHT22;58475;49.662;9.636;2022-09-03T05:11:25;14.33;73.64
70851;DHT22;58475;49.662;9.636;2022-09-03T05:13:54;14.37;73.95
70851;DHT22;58475;49.662;9.636;2022-09-03T05:16:20;14.26;73.53
70851;DHT22;58475;49.662;9.636;2022-09-03T05:18:47;14.45;73.21
70851;DHT22;58475;49.662;9.636;2022-09-03T05:21:17;14.69;70.26
70851;DHT22;58475;49.662;9.636;2022-09-03T05:23:44;14.87;67.26
70851;DHT22;58475;49.662;9.636;2022-09-03T05:26:19;14.88;68.54
70851;DHT22;58475;49.662;9.636;2022-09-03T05:28:45;14.98;69.85
70851;DHT22;58475;49.662;9.636;2022-09-03T05:31:15;14.93;69.97
70851;DHT22;58475;49.662;9.636;2022-09-03T05:33:43;15.09;70.74
70851;DHT22;58475;49.662;9.636;2022-09-03T05:36:14;15.08;71.02
70851;DHT22;58475;49.662;9.636;2022-09-03T05:38:40;15.18;69.35
70851;DHT22;58475;49.662;9.636;2022-09-03T05:41:07;15.20;67.03
70851;DHT22;58475;49.662;9.636;2022-09-03T05:43:36;15.23;68.17
70851;DHT22;58475;49.662;9.636;2022-09-03T05:46:07;15.26;68.26
70851;DHT22;58475;49.662;9.636;2022-09-03T05:48:34;15.30;70.25
70851;DHT22;58475;49.662;9.636;2022-09-03T05:51:06;15.26;70.60
70851;DHT22;58475;49.662;9.636;2022-09-03T05:53:34;15.40;69.31
70851;DHT22;58475;49.662;9.636;2022-09-03T05:56:05;15.47;66.84
70851;DHT22;58475;49.662;9.636;2022-09-03T05:58:35;15.54;65.64
70851;DHT22;58475;49.662;9.636;2022-09-03T06:03:39;15.51;68.12
70851;DHT22;58475;49.662;9.636;2022-09-03T06:06:06;15.49;68.30
70851;DHT22;58475;49.662;9.636;2022-09-03T06:08:32;15.56;67.02
70851;DHT22;58475;49.662;9.636;2022-09-03T06:11:01;15.70;65.87
70851;DHT22;58475;49.662;9.636;2022-09-03T06:13:28;15.63;64.88
70851;DHT22;58475;49.662;9.636;2022-09-03T06:15:58;15.73;65.01
70851;DHT22;58475;49.662;9.636;2022-09-03T06:18:27;15.80;65.49
70851;DHT22;58475;49.662;9.636;2022-09-03T06:21:00;15.83;67.22
70851;DHT22;58475;49.662;9.636;2022-09-03T06:23:27;15.88;64.02
70851;DHT22;58475;49.662;9.636;2022-09-03T06:26:13;15.90;64.48
70851;DHT22;58475;49.662;9.636;2022-09-03T06:28:42;15.93;65.06
70851;DHT22;58475;49.662;9.636;2022-09-03T06:31:11;16.01;64.33
70851;DHT22;58475;49.662;9.636;2022-09-03T06:33:37;16.05;64.75
70851;DHT22;58475;49.662;9.636;2022-09-03T06:36:06;16.11;63.71
70851;DHT22;58475;49.662;9.636;2022-09-03T06:38:33;16.17;63.06
70851;DHT22;58475;49.662;9.636;2022-09-03T06:41:10;16.22;63.60
70851;DHT22;58475;49.662;9.636;2022-09-03T06:43:38;16.51;62.87
70851;DHT22;58475;49.662;9.636;2022-09-03T06:46:13;16.65;62.57
70851;DHT22;58475;49.662;9.636;2022-09-03T06:48:39;16.72;62.46
70851;DHT22;58475;49.662;9.636;2022-09-03T06:51:07;16.84;62.32
70851;DHT22;58475;49.662;9.636;2022-09-03T06:53:35;16.91;61.00
70851;DHT22;58475;49.662;9.636;2022-09-03T06:56:03;17.02;61.06
70851;DHT22;58475;49.662;9.636;2022-09-03T06:58:32;17.32;62.36
70851;DHT22;58475;49.662;9.636;2022-09-03T07:01:02;17.30;59.99
70851;DHT22;58475;49.662;9.636;2022-09-03T07:03:27;17.31;60.36
70851;DHT22;58475;49.662;9.636;2022-09-03T07:05:52;17.28;60.60
70851;DHT22;58475;49.662;9.636;2022-09-03T07:08:18;17.30;60.59
70851;DHT22;58475;49.662;9.636;2022-09-03T07:10:46;17.39;60.27
70851;DHT22;58475;49.662;9.636;2022-09-03T07:13:12;17.51;59.40
70851;DHT22;58475;49.662;9.636;2022-09-03T07:15:38;17.79;60.35
70851;DHT22;58475;49.662;9.636;2022-09-03T07:18:05;18.05;60.19
70851;DHT22;58475;49.662;9.636;2022-09-03T07:20:30;17.66;59.24
70851;DHT22;58475;49.662;9.636;2022-09-03T07:22:56;17.89;60.71
70851;DHT22;58475;49.662;9.636;2022-09-03T07:25:23;18.02;59.07
70851;DHT22;58475;49.662;9.636;2022-09-03T07:27:48;18.22;59.12
70851;DHT22;58475;49.662;9.636;2022-09-03T07:30:16;18.57;58.47
70851;DHT22;58475;49.662;9.636;2022-09-03T07:32:41;18.57;59.03
70851;DHT22;58475;49.662;9.636;2022-09-03T07:35:06;18.44;57.61
70851;DHT22;58475;49.662;9.636;2022-09-03T07:37:32;18.38;58.88
70851;DHT22;58475;49.662;9.636;2022-09-03T07:39:58;17.87;58.99
70851;DHT22;58475;49.662;9.636;2022-09-03T07:42:23;18.23;58.20
70851;DHT22;58475;49.662;9.636;2022-09-03T07:44:51;18.46;58.16
70851;DHT22;58475;49.662;9.636;2022-09-03T07:47:16;18.23;58.17
70851;DHT22;58475;49.662;9.636;2022-09-03T07:49:42;18.20;58.85
70851;DHT22;58475;49.662;9.636;2022-09-03T07:52:07;18.18;58.46
70851;DHT22;58475;49.662;9.636;2022-09-03T07:54:33;18.37;59.04
70851;DHT22;58475;49.662;9.636;2022-09-03T07:56:58;18.30;58.83
70851;DHT22;58475;49.662;9.636;2022-09-03T07:59:23;18.60;58.09
70851;DHT22;58475;49.662;9.636;2022-09-03T08:01:50;18.60;58.06
70851;DHT22;58475;49.662;9.636;2022-09-03T08:04:15;18.37;58.66
70851;DHT22;58475;49.662;9.636;2022-09-03T08:06:41;18.53;58.83
70851;DHT22;58475;49.662;9.636;2022-09-03T08:09:08;18.17;59.01
70851;DHT22;58475;49.662;9.636;2022-09-03T08:11:37;18.46;60.04
70851;DHT22;58475;49.662;9.636;2022-09-03T08:14:05;18.79;57.24
70851;DHT22;58475;49.662;9.636;2022-09-03T08:16:32;19.45;56.88
70851;DHT22;58475;49.662;9.636;2022-09-03T08:18:58;19.91;54.96
70851;DHT22;58475;49.662;9.636;2022-09-03T08:21:25;20.04;54.64
70851;DHT22;58475;49.662;9.636;2022-09-03T08:23:53;20.20;54.57
70851;DHT22;58475;49.662;9.636;2022-09-03T08:26:20;20.84;54.20
70851;DHT22;58475;49.662;9.636;2022-09-03T08:28:47;20.43;53.23
70851;DHT22;58475;49.662;9.636;2022-09-03T08:31:18;19.94;55.56
70851;DHT22;58475;49.662;9.636;2022-09-03T08:33:46;20.55;54.84
70851;DHT22;58475;49.662;9.636;2022-09-03T08:36:17;20.14;55.00
70851;DHT22;58475;49.662;9.636;2022-09-03T08:38:45;20.42;53.19
70851;DHT22;58475;49.662;9.636;2022-09-03T08:41:16;20.68;53.64
70851;DHT22;58475;49.662;9.636;2022-09-03T08:44:03;20.59;54.52
70851;DHT22;58475;49.662;9.636;2022-09-03T08:49:27;20.68;54.27
70851;DHT22;58475;49.662;9.636;2022-09-03T08:52:27;20.49;53.50
70851;DHT22;58475;49.662;9.636;2022-09-03T08:57:49;21.78;53.08
70851;DHT22;58475;49.662;9.636;2022-09-03T09:00:15;21.86;51.09
70851;DHT22;58475;49.662;9.636;2022-09-03T09:02:51;22.29;50.69
70851;DHT22;58475;49.662;9.636;2022-09-03T09:05:50;22.67;50.49
70851;DHT22;58475;49.662;9.636;2022-09-03T09:10:56;22.83;49.73
70851;DHT22;58475;49.662;9.636;2022-09-03T09:13:57;22.56;50.64
70851;DHT22;58475;49.662;9.636;2022-09-03T09:16:37;22.23;52.50
70851;DHT22;58475;49.662;9.636;2022-09-03T09:21:58;22.43;51.77
70851;DHT22;58475;49.662;9.636;2022-09-03T09:24:26;23.62;49.76
70851;DHT22;58475;49.662;9.636;2022-09-03T09:27:04;23.15;49.63
70851;DHT22;58475;49.662;9.636;2022-09-03T09:29:32;23.14;52.21
70851;DHT22;58475;49.662;9.636;2022-09-03T09:31:59;23.37;47.93
70851;DHT22;58475;49.662;9.636;2022-09-03T09:34:24;24.10;47.63
70851;DHT22;58475;49.662;9.636;2022-09-03T09:36:52;24.04;48.72
70851;DHT22;58475;49.662;9.636;2022-09-03T09:39:18;24.24;46.38
70851;DHT22;58475;49.662;9.636;2022-09-03T09:41:56;25.63;46.28
70851;DHT22;58475;49.662;9.636;2022-09-03T09:44:24;26.83;43.43
70851;DHT22;58475;49.662;9.636;2022-09-03T09:46:50;25.91;43.21
70851;DHT22;58475;49.662;9.636;2022-09-03T09:52:08;24.48;46.05
70851;DHT22;58475;49.662;9.636;2022-09-03T09:54:35;22.90;47.84
70851;DHT22;58475;49.662;9.636;2022-09-03T09:57:04;23.30;49.13
70851;DHT22;58475;49.662;9.636;2022-09-03T09:59:31;23.53;47.77
70851;DHT22;58475;49.662;9.636;2022-09-03T10:02:11;22.40;50.60
70851;DHT22;58475;49.662;9.636;2022-09-03T10:47:57;22.54;52.73
70851;DHT22;58475;49.662;9.636;2022-09-03T10:50:28;22.32;54.09
70851;DHT22;58475;49.662;9.636;2022-09-03T10:58:32;22.44;55.96
70851;DHT22;58475;49.662;9.636;2022-09-03T11:01:21;22.44;59.69
70851;DHT22;58475;49.662;9.636;2022-09-03T11:04:35;22.36;63.43
70851;DHT22;58475;49.662;9.636;2022-09-03T11:06:53;22.46;64.98
70851;DHT22;58475;49.662;9.636;2022-09-03T11:09:42;22.63;65.90
70851;DHT22;58475;49.662;9.636;2022-09-03T11:12:15;22.46;65.14
70851;DHT22;58475;49.662;9.636;2022-09-03T11:14:59;22.06;65.62
70851;DHT22;58475;49.662;9.636;2022-09-03T11:17:49;21.71;66.21
70851;DHT22;58475;49.662;9.636;2022-09-03T11:20:20;21.64;68.69
70851;DHT22;58475;49.662;9.636;2022-09-03T11:22:49;21.64;66.76
70851;DHT22;58475;49.662;9.636;2022-09-03T11:25:17;21.74;66.57
70851;DHT22;58475;49.662;9.636;2022-09-03T11:30:48;22.72;66.54
70851;DHT22;58475;49.662;9.636;2022-09-03T11:33:18;22.29;64.28
70851;DHT22;58475;49.662;9.636;2022-09-03T11:35:54;21.44;65.85
70851;DHT22;58475;49.662;9.636;2022-09-03T11:38:20;21.52;66.66
70851;DHT22;58475;49.662;9.636;2022-09-03T11:43:27;21.59;65.67
70851;DHT22;58475;49.662;9.636;2022-09-03T11:46:09;21.74;67.78
70851;DHT22;58475;49.662;9.636;2022-09-03T11:48:44;22.05;66.64
70851;DHT22;58475;49.662;9.636;2022-09-03T11:53:57;23.39;61.86
70851;DHT22;58475;49.662;9.636;2022-09-03T11:56:23;23.04;61.11
70851;DHT22;58475;49.662;9.636;2022-09-03T12:01:43;23.30;59.38
70851;DHT22;58475;49.662;9.636;2022-09-03T12:04:14;22.95;60.54
70851;DHT22;58475;49.662;9.636;2022-09-03T12:07:06;22.91;61.25
70851;DHT22;58475;49.662;9.636;2022-09-03T12:09:56;22.70;60.02
70851;DHT22;58475;49.662;9.636;2022-09-03T12:18:06;22.10;62.59
70851;DHT22;58475;49.662;9.636;2022-09-03T12:20:46;22.56;61.79
70851;DHT22;58475;49.662;9.636;2022-09-03T12:23:13;22.68;61.34
70851;DHT22;58475;49.662;9.636;2022-09-03T12:25:43;23.42;59.80
70851;DHT22;58475;49.662;9.636;2022-09-03T12:28:15;23.30;59.88
70851;DHT22;58475;49.662;9.636;2022-09-03T12:30:41;23.28;58.56
70851;DHT22;58475;49.662;9.636;2022-09-03T12:33:08;22.61;60.21
70851;DHT22;58475;49.662;9.636;2022-09-03T12:35:37;23.04;59.53
70851;DHT22;58475;49.662;9.636;2022-09-03T12:38:02;23.69;59.21
70851;DHT22;58475;49.662;9.636;2022-09-03T12:40:29;24.22;57.05
70851;DHT22;58475;49.662;9.636;2022-09-03T12:42:55;24.11;57.29
70851;DHT22;58475;49.662;9.636;2022-09-03T12:45:40;23.50;56.90
70851;DHT22;58475;49.662;9.636;2022-09-03T12:48:12;23.08;58.24
70851;DHT22;58475;49.662;9.636;2022-09-03T12:50:39;23.07;58.64
70851;DHT22;58475;49.662;9.636;2022-09-03T12:53:05;22.90;58.22
70851;DHT22;58475;49.662;9.636;2022-09-03T13:00:40;23.52;56.01
70851;DHT22;58475;49.662;9.636;2022-09-03T13:03:11;23.58;56.79
70851;DHT22;58475;49.662;9.636;2022-09-03T13:05:44;23.05;57.57
70851;DHT22;58475;49.662;9.636;2022-09-03T13:08:21;22.95;57.77
70851;DHT22;58475;49.662;9.636;2022-09-03T13:10:51;23.16;57.57
70851;DHT22;58475;49.662;9.636;2022-09-03T13:13:28;23.81;58.55
70851;DHT22;58475;49.662;9.636;2022-09-03T13:16:28;24.07;57.76
70851;DHT22;58475;49.662;9.636;2022-09-03T13:21:41;23.96;58.77
70851;DHT22;58475;49.662;9.636;2022-09-03T13:29:59;24.80;56.90
70851;DHT22;58475;49.662;9.636;2022-09-03T13:35:39;25.43;55.50
70851;DHT22;58475;49.662;9.636;2022-09-03T13:38:32;25.82;54.92
70851;DHT22;58475;49.662;9.636;2022-09-03T13:43:39;25.60;54.04
70851;DHT22;58475;49.662;9.636;2022-09-03T13:46:18;26.11;51.68
70851;DHT22;58475;49.662;9.636;2022-09-03T13:48:47;26.21;52.35
70851;DHT22;58475;49.662;9.636;2022-09-03T13:51:51;26.90;49.81
70851;DHT22;58475;49.662;9.636;2022-09-03T13:54:30;27.45;49.67
70851;DHT22;58475;49.662;9.636;2022-09-03T13:57:06;26.72;49.22
70851;DHT22;58475;49.662;9.636;2022-09-03T14:02:44;27.27;48.26
70851;DHT22;58475;49.662;9.636;2022-09-03T14:10:26;27.41;47.71
70851;DHT22;58475;49.662;9.636;2022-09-03T14:13:06;28.03;45.44
70851;DHT22;58475;49.662;9.636;2022-09-03T14:18:40;27.30;46.86
70851;DHT22;58475;49.662;9.636;2022-09-03T14:24:05;27.27;48.64
70851;DHT22;58475;49.662;9.636;2022-09-03T14:26:34;27.01;47.39
70851;DHT22;58475;49.662;9.636;2022-09-03T14:29:14;27.35;47.68
70851;DHT22;58475;49.662;9.636;2022-09-03T14:31:56;27.92;45.99
70851;DHT22;58475;49.662;9.636;2022-09-03T14:39:53;26.52;49.71
70851;DHT22;58475;49.662;9.636;2022-09-03T14:45:22;26.84;47.95
70851;DHT22;58475;49.662;9.636;2022-09-03T14:50:57;26.43;50.25
70851;DHT22;58475;49.662;9.636;2022-09-03T15:05:05;24.49;54.14
70851;DHT22;58475;49.662;9.636;2022-09-03T15:07:54;24.47;55.05
70851;DHT22;58475;49.662;9.636;2022-09-03T15:10:30;24.39;55.72
70851;DHT22;58475;49.662;9.636;2022-09-03T15:13:09;24.17;55.40
70851;DHT22;58475;49.662;9.636;2022-09-03T15:19:09;23.93;56.24
70851;DHT22;58475;49.662;9.636;2022-09-03T15:21:15;23.69;57.69
70851;DHT22;58475;49.662;9.636;2022-09-03T15:27:04;23.48;59.15
70851;DHT22;58475;49.662;9.636;2022-09-03T15:32:55;23.49;58.62
70851;DHT22;58475;49.662;9.636;2022-09-03T15:40:47;25.98;52.27
70851;DHT22;58475;49.662;9.636;2022-09-03T15:43:21;26.42;54.11
70851;DHT22;58475;49.662;9.636;2022-09-03T15:48:22;26.15;55.06
70851;DHT22;58475;49.662;9.636;2022-09-03T15:50:55;26.14;54.76
70851;DHT22;58475;49.662;9.636;2022-09-03T15:56:36;26.09;53.03
70851;DHT22;58475;49.662;9.636;2022-09-03T15:59:17;26.64;53.08
70851;DHT22;58475;49.662;9.636;2022-09-03T16:01:52;25.40;54.66
70851;DHT22;58475;49.662;9.636;2022-09-03T16:07:47;24.64;57.37
70851;DHT22;58475;49.662;9.636;2022-09-03T16:10:19;24.68;59.18
70851;DHT22;58475;49.662;9.636;2022-09-03T16:13:08;24.67;58.03
70851;DHT22;58475;49.662;9.636;2022-09-03T16:15:42;24.20;58.70
70851;DHT22;58475;49.662;9.636;2022-09-03T16:18:29;24.03;60.16
70851;DHT22;58475;49.662;9.636;2022-09-03T16:21:08;23.87;59.03
70851;DHT22;58475;49.662;9.636;2022-09-03T16:23:57;23.63;60.29
70851;DHT22;58475;49.662;9.636;2022-09-03T16:26:29;23.50;60.98
70851;DHT22;58475;49.662;9.636;2022-09-03T16:29:10;23.37;60.44
70851;DHT22;58475;49.662;9.636;2022-09-03T16:42:17;22.94;62.13
70851;DHT22;58475;49.662;9.636;2022-09-03T16:51:07;22.02;63.83
70851;DHT22;58475;49.662;9.636;2022-09-03T16:56:59;21.37;66.17
70851;DHT22;58475;49.662;9.636;2022-09-03T17:08:04;20.46;71.18
70851;DHT22;58475;49.662;9.636;2022-09-03T17:16:28;18.50;82.00
70851;DHT22;58475;49.662;9.636;2022-09-03T17:21:52;18.69;82.12
70851;DHT22;58475;49.662;9.636;2022-09-03T17:24:45;18.65;84.81
70851;DHT22;58475;49.662;9.636;2022-09-03T17:30:09;18.69;85.70
70851;DHT22;58475;49.662;9.636;2022-09-03T17:36:17;18.92;89.86
70851;DHT22;58475;49.662;9.636;2022-09-03T17:44:27;18.64;88.22
70851;DHT22;58475;49.662;9.636;2022-09-03T17:49:45;18.76;88.94
70851;DHT22;58475;49.662;9.636;2022-09-03T17:52:36;18.87;88.70
70851;DHT22;58475;49.662;9.636;2022-09-03T17:55:12;18.65;88.91
70851;DHT22;58475;49.662;9.636;2022-09-03T17:57:46;18.47;90.56
70851;DHT22;58475;49.662;9.636;2022-09-03T18:00:35;18.16;89.08
70851;DHT22;58475;49.662;9.636;2022-09-03T18:03:12;18.07;89.07
70851;DHT22;58475;49.662;9.636;2022-09-03T18:08:48;18.05;90.13
70851;DHT22;58475;49.662;9.636;2022-09-03T18:11:29;17.75;89.46
70851;DHT22;58475;49.662;9.636;2022-09-03T18:19:43;17.69;90.02
70851;DHT22;58475;49.662;9.636;2022-09-03T18:22:46;17.79;90.40
70851;DHT22;58475;49.662;9.636;2022-09-03T18:25:34;17.69;90.95
70851;DHT22;58475;49.662;9.636;2022-09-03T18:28:29;17.75;90.44
70851;DHT22;58475;49.662;9.636;2022-09-03T18:31:17;17.81;89.53
70851;DHT22;58475;49.662;9.636;2022-09-03T18:34:02;17.93;88.80
70851;DHT22;58475;49.662;9.636;2022-09-03T18:36:47;17.79;90.17
70851;DHT22;58475;49.662;9.636;2022-09-03T18:39:31;17.59;90.31
70851;DHT22;58475;49.662;9.636;2022-09-03T18:42:49;17.34;90.53
70851;DHT22;58475;49.662;9.636;2022-09-03T18:48:30;17.47;91.22
70851;DHT22;58475;49.662;9.636;2022-09-03T18:57:10;17.47;90.64
70851;DHT22;58475;49.662;9.636;2022-09-03T19:09:32;17.16;91.36
70851;DHT22;58475;49.662;9.636;2022-09-03T19:15:22;16.97;92.91
70851;DHT22;58475;49.662;9.636;2022-09-03T19:18:33;16.93;92.25
70851;DHT22;58475;49.662;9.636;2022-09-03T19:21:39;17.11;91.73
70851;DHT22;58475;49.662;9.636;2022-09-03T19:24:29;17.04;91.97
70851;DHT22;58475;49.662;9.636;2022-09-03T19:27:37;17.00;92.36
70851;DHT22;58475;49.662;9.636;2022-09-03T19:30:33;16.96;91.75
70851;DHT22;58475;49.662;9.636;2022-09-03T19:33:34;16.90;91.20
70851;DHT22;58475;49.662;9.636;2022-09-03T19:36:41;16.90;91.69
70851;DHT22;58475;49.662;9.636;2022-09-03T19:42:50;16.80;91.43
70851;DHT22;58475;49.662;9.636;2022-09-03T19:51:33;16.66;92.05
70851;DHT22;58475;49.662;9.636;2022-09-03T19:54:21;16.55;92.13
70851;DHT22;58475;49.662;9.636;2022-09-03T19:57:07;16.66;91.66
70851;DHT22;58475;49.662;9.636;2022-09-03T19:59:57;16.56;91.81
70851;DHT22;58475;49.662;9.636;2022-09-03T20:02:45;16.51;91.93
70851;DHT22;58475;49.662;9.636;2022-09-03T20:05:30;16.46;91.77
70851;DHT22;58475;49.662;9.636;2022-09-03T20:08:16;16.51;91.97
70851;DHT22;58475;49.662;9.636;2022-09-03T20:11:01;16.42;91.75
70851;DHT22;58475;49.662;9.636;2022-09-03T20:13:28;16.42;92.18
70851;DHT22;58475;49.662;9.636;2022-09-03T20:16:32;16.29;91.93
70851;DHT22;58475;49.662;9.636;2022-09-03T20:22:11;16.38;91.89
70851;DHT22;58475;49.662;9.636;2022-09-03T20:30:20;16.38;92.12
70851;DHT22;58475;49.662;9.636;2022-09-03T20:39:10;16.18;92.36
70851;DHT22;58475;49.662;9.636;2022-09-03T20:50:38;16.00;92.57
70851;DHT22;58475;49.662;9.636;2022-09-03T20:55:50;15.97;92.75
70851;DHT22;58475;49.662;9.636;2022-09-03T20:58:20;15.97;93.06
70851;DHT22;58475;49.662;9.636;2022-09-03T21:06:25;16.04;93.19
70851;DHT22;58475;49.662;9.636;2022-09-03T21:09:16;16.08;92.46
70851;DHT22;58475;49.662;9.636;2022-09-03T21:14:37;16.18;92.91
70851;DHT22;58475;49.662;9.636;2022-09-03T21:25:36;16.24;92.70
70851;DHT22;58475;49.662;9.636;2022-09-03T21:28:26;16.17;92.71
70851;DHT22;58475;49.662;9.636;2022-09-03T21:30:58;16.02;92.64
70851;DHT22;58475;49.662;9.636;2022-09-03T21:33:27;16.02;92.80
70851;DHT22;58475;49.662;9.636;2022-09-03T21:38:25;16.02;93.20
70851;DHT22;58475;49.662;9.636;2022-09-03T21:44:07;15.96;92.55
70851;DHT22;58475;49.662;9.636;2022-09-03T21:46:58;15.94;93.17
70851;DHT22;58475;49.662;9.636;2022-09-03T21:52:18;16.02;92.73